OAS5555 CYVR-KPDX
Flight info
| Callsign | OAS5555 |
|---|---|
| Flight time | 0h 50m |
| Altitude | 25000 |
| Route | SEA DCT BUWZO KRATR3 |
| Aircraft | B738/M-SDE2E3FGHIRWXY/LB1 |
Departure
| Time | 2026-05-04 15:41 |
|---|---|
| Airport | Vancouver International Airport (CYVR) |
Arrival
| Time | 2026-05-04 16:31 |
|---|---|
| Airport | Portland International Airport (KPDX) |
| Time | Latitude | Longitude | Altitude | Speed | Heading |
|---|---|---|---|---|---|
| 2026-05-04 15:38 | 49.18587 | -123.16192 | 9 ft | 0 kts | 163° |
| 2026-05-04 15:38 | 49.18586 | -123.16192 | 9 ft | 0 kts | 169° |
| 2026-05-04 15:39 | 49.18584 | -123.16192 | 9 ft | 0 kts | 178° |
| 2026-05-04 15:39 | 49.18583 | -123.16193 | 9 ft | 0 kts | 185° |
| 2026-05-04 15:39 | 49.18508 | -123.16253 | 9 ft | 9 kts | 245° |
| 2026-05-04 15:40 | 49.18512 | -123.16423 | 9 ft | 29 kts | 278° |
| 2026-05-04 15:40 | 49.18584 | -123.17036 | 7 ft | 101 kts | 281° |
| 2026-05-04 15:40 | 49.18734 | -123.18515 | 41 ft | 176 kts | 277° |
| 2026-05-04 15:40 | 49.18945 | -123.20596 | 490 ft | 214 kts | 278° |
| 2026-05-04 15:41 | 49.19164 | -123.22926 | 1440 ft | 227 kts | 270° |
| 2026-05-04 15:41 | 49.18698 | -123.25185 | 2502 ft | 237 kts | 234° |
| 2026-05-04 15:41 | 49.17442 | -123.26898 | 3347 ft | 243 kts | 214° |
| 2026-05-04 15:41 | 49.15995 | -123.28231 | 4234 ft | 244 kts | 208° |
| 2026-05-04 15:42 | 49.14449 | -123.29341 | 5016 ft | 249 kts | 192° |
| 2026-05-04 15:42 | 49.12737 | -123.29172 | 5810 ft | 250 kts | 160° |
| 2026-05-04 15:42 | 49.11098 | -123.28206 | 6567 ft | 255 kts | 158° |
| 2026-05-04 15:42 | 49.09441 | -123.27170 | 7338 ft | 259 kts | 157° |
| 2026-05-04 15:43 | 49.07766 | -123.26119 | 8110 ft | 262 kts | 157° |
| 2026-05-04 15:43 | 49.06062 | -123.25058 | 8831 ft | 267 kts | 158° |
| 2026-05-04 15:43 | 49.04333 | -123.23992 | 9579 ft | 270 kts | 158° |
| 2026-05-04 15:43 | 49.02578 | -123.22920 | 10301 ft | 273 kts | 158° |
| 2026-05-04 15:44 | 49.00803 | -123.21844 | 11013 ft | 276 kts | 158° |
| 2026-05-04 15:44 | 48.99001 | -123.20756 | 11686 ft | 281 kts | 158° |
| 2026-05-04 15:44 | 48.97175 | -123.19659 | 12367 ft | 285 kts | 158° |
| 2026-05-04 15:44 | 48.95324 | -123.18554 | 13072 ft | 287 kts | 158° |
| 2026-05-04 15:45 | 48.93458 | -123.17431 | 13726 ft | 291 kts | 159° |
| 2026-05-04 15:45 | 48.91556 | -123.16301 | 14339 ft | 296 kts | 158° |
| 2026-05-04 15:45 | 48.89633 | -123.15163 | 14998 ft | 299 kts | 158° |
| 2026-05-04 15:45 | 48.87708 | -123.14024 | 15629 ft | 302 kts | 158° |
| 2026-05-04 15:46 | 48.85739 | -123.12858 | 16220 ft | 306 kts | 158° |
| 2026-05-04 15:46 | 48.83744 | -123.11678 | 16836 ft | 309 kts | 158° |
| 2026-05-04 15:46 | 48.81728 | -123.10486 | 17421 ft | 313 kts | 158° |
| 2026-05-04 15:46 | 48.79685 | -123.09277 | 18000 ft | 317 kts | 158° |
| 2026-05-04 15:47 | 48.77621 | -123.08059 | 18589 ft | 320 kts | 158° |
| 2026-05-04 15:47 | 48.75540 | -123.06833 | 19145 ft | 323 kts | 158° |
| 2026-05-04 15:47 | 48.73431 | -123.05589 | 19687 ft | 327 kts | 158° |
| 2026-05-04 15:47 | 48.71308 | -123.04336 | 20226 ft | 330 kts | 158° |
| 2026-05-04 15:48 | 48.69154 | -123.03067 | 20765 ft | 333 kts | 158° |
| 2026-05-04 15:48 | 48.66982 | -123.01792 | 21269 ft | 337 kts | 158° |
| 2026-05-04 15:48 | 48.62578 | -122.99201 | 22269 ft | 343 kts | 158° |
| 2026-05-04 15:49 | 48.60345 | -122.97889 | 22782 ft | 345 kts | 158° |
| 2026-05-04 15:49 | 48.58098 | -122.96571 | 23268 ft | 348 kts | 158° |
| 2026-05-04 15:49 | 48.55833 | -122.95241 | 23717 ft | 351 kts | 157° |
| 2026-05-04 15:49 | 48.53545 | -122.93896 | 24170 ft | 354 kts | 158° |
| 2026-05-04 15:50 | 48.51239 | -122.92550 | 24613 ft | 357 kts | 158° |
| 2026-05-04 15:50 | 48.48907 | -122.91192 | 24923 ft | 362 kts | 158° |
| 2026-05-04 15:50 | 48.46541 | -122.89814 | 24899 ft | 365 kts | 158° |
| 2026-05-04 15:50 | 48.44181 | -122.88442 | 24910 ft | 362 kts | 157° |
| 2026-05-04 15:51 | 48.41846 | -122.87084 | 24908 ft | 358 kts | 157° |
| 2026-05-04 15:51 | 48.39528 | -122.85736 | 24914 ft | 359 kts | 157° |
| 2026-05-04 15:51 | 48.37187 | -122.84376 | 24926 ft | 359 kts | 157° |
| 2026-05-04 15:51 | 48.34853 | -122.83022 | 24928 ft | 360 kts | 157° |
| 2026-05-04 15:52 | 48.32518 | -122.81668 | 24929 ft | 360 kts | 157° |
| 2026-05-04 15:52 | 48.30180 | -122.80314 | 24929 ft | 360 kts | 157° |
| 2026-05-04 15:52 | 48.27843 | -122.78963 | 24929 ft | 360 kts | 157° |
| 2026-05-04 15:52 | 48.25499 | -122.77608 | 24929 ft | 361 kts | 157° |
| 2026-05-04 15:53 | 48.23159 | -122.76255 | 24929 ft | 361 kts | 157° |
| 2026-05-04 15:53 | 48.20818 | -122.74904 | 24931 ft | 361 kts | 157° |
| 2026-05-04 15:53 | 48.18477 | -122.73554 | 24925 ft | 361 kts | 158° |
| 2026-05-04 15:53 | 48.16136 | -122.72206 | 24924 ft | 360 kts | 157° |
| 2026-05-04 15:54 | 48.13794 | -122.70858 | 24926 ft | 359 kts | 157° |
| 2026-05-04 15:54 | 48.11462 | -122.69518 | 24922 ft | 359 kts | 157° |
| 2026-05-04 15:54 | 48.09164 | -122.68198 | 24923 ft | 358 kts | 157° |
| 2026-05-04 15:54 | 48.06840 | -122.66865 | 24925 ft | 358 kts | 157° |
| 2026-05-04 15:55 | 48.04484 | -122.65515 | 24920 ft | 358 kts | 157° |
| 2026-05-04 15:55 | 48.02188 | -122.64201 | 24920 ft | 357 kts | 157° |
| 2026-05-04 15:55 | 47.99867 | -122.62873 | 24917 ft | 357 kts | 157° |
| 2026-05-04 15:55 | 47.97545 | -122.61546 | 24922 ft | 357 kts | 157° |
| 2026-05-04 15:56 | 47.95230 | -122.60225 | 24930 ft | 356 kts | 157° |
| 2026-05-04 15:56 | 47.92915 | -122.58904 | 24924 ft | 356 kts | 157° |
| 2026-05-04 15:56 | 47.90596 | -122.57584 | 24926 ft | 356 kts | 157° |
| 2026-05-04 15:56 | 47.88285 | -122.56268 | 24927 ft | 356 kts | 157° |
| 2026-05-04 15:57 | 47.85970 | -122.54951 | 24925 ft | 356 kts | 157° |
| 2026-05-04 15:57 | 47.83648 | -122.53631 | 24928 ft | 356 kts | 157° |
| 2026-05-04 15:57 | 47.81333 | -122.52316 | 24919 ft | 356 kts | 157° |
| 2026-05-04 15:57 | 47.79017 | -122.51002 | 24926 ft | 356 kts | 157° |
| 2026-05-04 15:58 | 47.76704 | -122.49692 | 24928 ft | 356 kts | 157° |
| 2026-05-04 15:58 | 47.74393 | -122.48384 | 24924 ft | 356 kts | 157° |
| 2026-05-04 15:58 | 47.72072 | -122.47072 | 24926 ft | 356 kts | 157° |
| 2026-05-04 15:58 | 47.69757 | -122.45764 | 24925 ft | 356 kts | 157° |
| 2026-05-04 15:59 | 47.67446 | -122.44459 | 24927 ft | 355 kts | 157° |
| 2026-05-04 15:59 | 47.65133 | -122.43154 | 24926 ft | 355 kts | 157° |
| 2026-05-04 15:59 | 47.62820 | -122.41851 | 24921 ft | 355 kts | 157° |
| 2026-05-04 15:59 | 47.60508 | -122.40549 | 24918 ft | 355 kts | 157° |
| 2026-05-04 16:00 | 47.58199 | -122.39250 | 24918 ft | 355 kts | 157° |
| 2026-05-04 16:00 | 47.55889 | -122.37951 | 24923 ft | 356 kts | 157° |
| 2026-05-04 16:00 | 47.53575 | -122.36650 | 24922 ft | 356 kts | 157° |
| 2026-05-04 16:00 | 47.51255 | -122.35348 | 24917 ft | 356 kts | 157° |
| 2026-05-04 16:01 | 47.48944 | -122.34052 | 24921 ft | 356 kts | 157° |
| 2026-05-04 16:01 | 47.46621 | -122.32753 | 24923 ft | 356 kts | 157° |
| 2026-05-04 16:01 | 47.44275 | -122.31550 | 24928 ft | 357 kts | 164° |
| 2026-05-04 16:01 | 47.41821 | -122.30931 | 24926 ft | 359 kts | 176° |
| 2026-05-04 16:02 | 47.39326 | -122.30860 | 24943 ft | 359 kts | 179° |
| 2026-05-04 16:02 | 47.36831 | -122.30887 | 24935 ft | 360 kts | 180° |
| 2026-05-04 16:02 | 47.31817 | -122.30968 | 24933 ft | 360 kts | 180° |
| 2026-05-04 16:03 | 47.29321 | -122.30991 | 24935 ft | 360 kts | 179° |
| 2026-05-04 16:03 | 47.26818 | -122.31005 | 24938 ft | 360 kts | 179° |
| 2026-05-04 16:03 | 47.24314 | -122.31011 | 24935 ft | 359 kts | 179° |
| 2026-05-04 16:03 | 47.21816 | -122.31013 | 24928 ft | 359 kts | 179° |
| 2026-05-04 16:04 | 47.19318 | -122.31015 | 24931 ft | 358 kts | 179° |
| 2026-05-04 16:04 | 47.14339 | -122.31013 | 24935 ft | 358 kts | 179° |
| 2026-05-04 16:04 | 47.11851 | -122.31012 | 24883 ft | 359 kts | 179° |
| 2026-05-04 16:05 | 47.09343 | -122.31011 | 24616 ft | 361 kts | 179° |
| 2026-05-04 16:05 | 47.06822 | -122.31010 | 24271 ft | 362 kts | 179° |
| 2026-05-04 16:05 | 47.01783 | -122.31007 | 23556 ft | 361 kts | 179° |
| 2026-05-04 16:06 | 46.99270 | -122.31006 | 23184 ft | 361 kts | 179° |
| 2026-05-04 16:06 | 46.92613 | -122.31008 | 22208 ft | 358 kts | 179° |
| 2026-05-04 16:07 | 46.89282 | -122.31011 | 21731 ft | 357 kts | 179° |
| 2026-05-04 16:07 | 46.81868 | -122.31009 | 20613 ft | 356 kts | 179° |
| 2026-05-04 16:08 | 46.79393 | -122.31010 | 20233 ft | 356 kts | 179° |
| 2026-05-04 16:08 | 46.72003 | -122.31004 | 19111 ft | 352 kts | 179° |
| 2026-05-04 16:09 | 46.67110 | -122.31003 | 18356 ft | 350 kts | 179° |
| 2026-05-04 16:09 | 46.62249 | -122.31000 | 17611 ft | 348 kts | 179° |
| 2026-05-04 16:10 | 46.57422 | -122.30995 | 16855 ft | 346 kts | 179° |
| 2026-05-04 16:11 | 46.50231 | -122.30988 | 15748 ft | 342 kts | 179° |
| 2026-05-04 16:11 | 46.47855 | -122.30986 | 15380 ft | 341 kts | 179° |
| 2026-05-04 16:12 | 46.40785 | -122.30983 | 14283 ft | 337 kts | 179° |
| 2026-05-04 16:12 | 46.34581 | -122.30975 | 13320 ft | 334 kts | 180° |
| 2026-05-04 16:13 | 46.29971 | -122.30958 | 12633 ft | 330 kts | 179° |
| 2026-05-04 16:13 | 46.25397 | -122.31128 | 11868 ft | 328 kts | 192° |
| 2026-05-04 16:14 | 46.21144 | -122.33380 | 11171 ft | 324 kts | 202° |
| 2026-05-04 16:14 | 46.16985 | -122.35798 | 10499 ft | 319 kts | 201° |
| 2026-05-04 16:15 | 46.11035 | -122.39135 | 10088 ft | 293 kts | 201° |
| 2026-05-04 16:16 | 46.07316 | -122.41185 | 9708 ft | 283 kts | 201° |
| 2026-05-04 16:16 | 46.01851 | -122.44129 | 8950 ft | 276 kts | 201° |
| 2026-05-04 16:17 | 45.98286 | -122.46049 | 8440 ft | 272 kts | 201° |
| 2026-05-04 16:18 | 45.93049 | -122.48968 | 7670 ft | 266 kts | 213° |
| 2026-05-04 16:18 | 45.91658 | -122.50628 | 7448 ft | 262 kts | 224° |
| 2026-05-04 16:19 | 45.87740 | -122.55989 | 6705 ft | 256 kts | 224° |
| 2026-05-04 16:19 | 45.85160 | -122.59478 | 6231 ft | 252 kts | 224° |
| 2026-05-04 16:20 | 45.81348 | -122.64592 | 5523 ft | 248 kts | 224° |
| 2026-05-04 16:20 | 45.78828 | -122.67960 | 5085 ft | 247 kts | 224° |
| 2026-05-04 16:21 | 45.75376 | -122.73371 | 4983 ft | 245 kts | 254° |
| 2026-05-04 16:22 | 45.75804 | -122.78084 | 5000 ft | 245 kts | 294° |
| 2026-05-04 16:22 | 45.77889 | -122.84785 | 4986 ft | 245 kts | 294° |
| 2026-05-04 16:23 | 45.79691 | -122.91929 | 3925 ft | 257 kts | 263° |
| 2026-05-04 16:24 | 45.74457 | -122.96101 | 3303 ft | 232 kts | 155° |
| 2026-05-04 16:25 | 45.72348 | -122.92977 | 3330 ft | 213 kts | 115° |
| 2026-05-04 16:26 | 45.69650 | -122.85624 | 3022 ft | 217 kts | 120° |
| 2026-05-04 16:26 | 45.67481 | -122.80082 | 2995 ft | 193 kts | 120° |
| 2026-05-04 16:27 | 45.66260 | -122.76960 | 2730 ft | 173 kts | 119° |
| 2026-05-04 16:28 | 45.64666 | -122.72878 | 2129 ft | 150 kts | 120° |
| 2026-05-04 16:28 | 45.63192 | -122.69098 | 1528 ft | 141 kts | 121° |
| 2026-05-04 16:29 | 45.61304 | -122.64253 | 794 ft | 139 kts | 120° |
| 2026-05-04 16:30 | 45.59903 | -122.60642 | 244 ft | 139 kts | 122° |
| 2026-05-04 16:31 | 45.59024 | -122.58402 | 40 ft | 91 kts | 119° |
| 2026-05-04 16:31 | 45.58623 | -122.57641 | 40 ft | 0 kts | 208° |
| 2026-05-04 16:33 | 45.58621 | -122.57646 | 37 ft | 0 kts | 235° |
| 2026-05-04 16:34 | 45.58640 | -122.57757 | 39 ft | 15 kts | 303° |
| 2026-05-04 16:34 | 45.58693 | -122.57872 | 44 ft | 12 kts | 303° |
| 2026-05-04 16:35 | 45.58846 | -122.58263 | 40 ft | 19 kts | 296° |
| 2026-05-04 16:35 | 45.59038 | -122.58838 | 40 ft | 20 kts | 272° |
| 2026-05-04 16:36 | 45.59058 | -122.59011 | 39 ft | 17 kts | 297° |
| 2026-05-04 16:36 | 45.59091 | -122.59093 | 39 ft | 0 kts | 301° |